Sign in to follow this  
TXL12

Volumetric Lights with totally clear weather!

Recommended Posts

Hey guys,

since the release I am experiencing, that even though the weather is totally clear I am getting volumetric lightning.

The pic shows it.

 

fsx2015-12-0416-47-348jua6.png

 

The METAR looked as following:

EDDF 041520Z 19005KT 9999 FEW015 SCT023 08/07 Q1032 NOSIG

 

Hope you can help me!

 

Share this post


Link to post
Share on other sites
Help AVSIM continue to serve you!
Please donate today!

Create an account or sign in to comment

You need to be a member in order to leave a comment

Create an account

Sign up for a new account in our community. It's easy!

Register a new account

Sign in

Already have an account? Sign in here.

Sign In Now
Sign in to follow this